sensor_id;sensor_type;location;lat;lon;timestamp;pressure;altitude;pressure_sealevel;temperature;humidity
13661;BME280;6903;49.480;11.102;2023-05-19T00:01:06;98510.94;;;9.33;100.00
13661;BME280;6903;49.480;11.102;2023-05-19T00:03:35;98508.00;;;9.38;100.00
13661;BME280;6903;49.480;11.102;2023-05-19T00:06:05;98510.53;;;9.39;100.00
13661;BME280;6903;49.480;11.102;2023-05-19T00:08:33;98508.88;;;9.38;100.00
13661;BME280;6903;49.480;11.102;2023-05-19T00:10:58;98501.72;;;9.40;100.00
13661;BME280;6903;49.480;11.102;2023-05-19T00:13:24;98507.69;;;9.42;100.00
13661;BME280;6903;49.480;11.102;2023-05-19T00:15:50;98509.41;;;9.43;100.00
13661;BME280;6903;49.480;11.102;2023-05-19T00:18:15;98511.06;;;9.44;100.00
13661;BME280;6903;49.480;11.102;2023-05-19T00:20:41;98499.63;;;9.45;100.00
13661;BME280;6903;49.480;11.102;2023-05-19T00:23:07;98500.34;;;9.47;100.00
13661;BME280;6903;49.480;11.102;2023-05-19T00:25:32;98500.25;;;9.49;100.00
13661;BME280;6903;49.480;11.102;2023-05-19T00:27:57;98506.25;;;9.51;100.00
13661;BME280;6903;49.480;11.102;2023-05-19T00:30:23;98498.16;;;9.54;100.00
13661;BME280;6903;49.480;11.102;2023-05-19T00:32:49;98502.38;;;9.56;100.00
13661;BME280;6903;49.480;11.102;2023-05-19T00:35:15;98498.78;;;9.57;100.00
13661;BME280;6903;49.480;11.102;2023-05-19T00:37:40;98494.28;;;9.59;100.00
13661;BME280;6903;49.480;11.102;2023-05-19T00:40:06;98493.97;;;9.64;100.00
13661;BME280;6903;49.480;11.102;2023-05-19T00:42:32;98487.66;;;9.66;100.00
13661;BME280;6903;49.480;11.102;2023-05-19T00:44:58;98489.13;;;9.70;100.00
13661;BME280;6903;49.480;11.102;2023-05-19T00:47:23;98483.66;;;9.73;100.00
13661;BME280;6903;49.480;11.102;2023-05-19T00:49:48;98481.75;;;9.75;100.00
13661;BME280;6903;49.480;11.102;2023-05-19T00:52:13;98477.34;;;9.76;100.00
13661;BME280;6903;49.480;11.102;2023-05-19T00:54:39;98479.13;;;9.75;100.00
13661;BME280;6903;49.480;11.102;2023-05-19T00:57:04;98479.88;;;9.77;100.00
13661;BME280;6903;49.480;11.102;2023-05-19T00:59:30;98479.13;;;9.75;100.00
13661;BME280;6903;49.480;11.102;2023-05-19T01:01:56;98473.97;;;9.74;100.00
13661;BME280;6903;49.480;11.102;2023-05-19T01:04:21;98474.06;;;9.72;100.00
13661;BME280;6903;49.480;11.102;2023-05-19T01:06:50;98472.38;;;9.71;100.00
13661;BME280;6903;49.480;11.102;2023-05-19T01:09:22;98470.59;;;9.72;100.00
13661;BME280;6903;49.480;11.102;2023-05-19T01:11:51;98464.28;;;9.74;100.00
13661;BME280;6903;49.480;11.102;2023-05-19T01:14:17;98454.47;;;9.76;100.00
13661;BME280;6903;49.480;11.102;2023-05-19T01:17:00;98462.38;;;9.76;100.00
13661;BME280;6903;49.480;11.102;2023-05-19T01:22:47;98461.66;;;9.74;100.00
13661;BME280;6903;49.480;11.102;2023-05-19T01:28:25;98453.13;;;9.71;100.00
13661;BME280;6903;49.480;11.102;2023-05-19T01:30:57;98450.69;;;9.68;100.00
13661;BME280;6903;49.480;11.102;2023-05-19T01:33:23;98449.84;;;9.67;100.00
13661;BME280;6903;49.480;11.102;2023-05-19T01:35:52;98449.09;;;9.65;100.00
13661;BME280;6903;49.480;11.102;2023-05-19T01:38:19;98450.06;;;9.64;100.00
13661;BME280;6903;49.480;11.102;2023-05-19T01:40:47;98452.91;;;9.61;100.00
13661;BME280;6903;49.480;11.102;2023-05-19T01:43:19;98443.41;;;9.59;100.00
13661;BME280;6903;49.480;11.102;2023-05-19T01:45:45;98445.41;;;9.55;100.00
13661;BME280;6903;49.480;11.102;2023-05-19T01:48:12;98442.75;;;9.55;100.00
13661;BME280;6903;49.480;11.102;2023-05-19T01:50:38;98447.22;;;9.55;100.00
13661;BME280;6903;49.480;11.102;2023-05-19T01:53:04;98448.22;;;9.52;100.00
13661;BME280;6903;49.480;11.102;2023-05-19T01:55:29;98448.34;;;9.51;100.00
13661;BME280;6903;49.480;11.102;2023-05-19T02:00:51;98445.41;;;9.55;100.00
13661;BME280;6903;49.480;11.102;2023-05-19T02:09:03;98458.66;;;9.54;100.00
13661;BME280;6903;49.480;11.102;2023-05-19T02:11:40;98455.22;;;9.53;100.00
13661;BME280;6903;49.480;11.102;2023-05-19T02:14:19;98462.25;;;9.53;100.00
13661;BME280;6903;49.480;11.102;2023-05-19T02:16:46;98460.66;;;9.50;100.00
13661;BME280;6903;49.480;11.102;2023-05-19T02:19:20;98458.88;;;9.51;100.00
13661;BME280;6903;49.480;11.102;2023-05-19T02:21:45;98461.59;;;9.49;100.00
13661;BME280;6903;49.480;11.102;2023-05-19T02:24:10;98460.66;;;9.50;100.00
13661;BME280;6903;49.480;11.102;2023-05-19T02:26:36;98461.50;;;9.51;100.00
13661;BME280;6903;49.480;11.102;2023-05-19T02:29:01;98461.50;;;9.51;100.00
13661;BME280;6903;49.480;11.102;2023-05-19T02:31:26;98450.75;;;9.54;100.00
13661;BME280;6903;49.480;11.102;2023-05-19T02:33:52;98451.63;;;9.54;100.00
13661;BME280;6903;49.480;11.102;2023-05-19T02:36:17;98452.38;;;9.56;100.00
13661;BME280;6903;49.480;11.102;2023-05-19T02:38:43;98447.00;;;9.58;100.00
13661;BME280;6903;49.480;11.102;2023-05-19T02:41:08;98445.94;;;9.60;100.00
13661;BME280;6903;49.480;11.102;2023-05-19T02:43:33;98440.88;;;9.57;100.00
13661;BME280;6903;49.480;11.102;2023-05-19T02:45:59;98444.91;;;9.63;100.00
13661;BME280;6903;49.480;11.102;2023-05-19T02:48:24;98431.63;;;9.64;100.00
13661;BME280;6903;49.480;11.102;2023-05-19T02:50:49;98429.75;;;9.66;100.00
13661;BME280;6903;49.480;11.102;2023-05-19T02:53:15;98419.91;;;9.68;100.00
13661;BME280;6903;49.480;11.102;2023-05-19T02:55:41;98426.91;;;9.69;100.00
13661;BME280;6903;49.480;11.102;2023-05-19T02:58:06;98427.72;;;9.70;100.00
13661;BME280;6903;49.480;11.102;2023-05-19T03:00:31;98422.44;;;9.70;100.00
13661;BME280;6903;49.480;11.102;2023-05-19T03:02:56;98420.66;;;9.70;100.00
13661;BME280;6903;49.480;11.102;2023-05-19T03:05:26;98426.69;;;9.72;100.00
13661;BME280;6903;49.480;11.102;2023-05-19T03:07:51;98427.50;;;9.73;100.00
13661;BME280;6903;49.480;11.102;2023-05-19T03:10:17;98422.88;;;9.76;100.00
13661;BME280;6903;49.480;11.102;2023-05-19T03:12:42;98421.63;;;9.82;100.00
13661;BME280;6903;49.480;11.102;2023-05-19T03:15:08;98419.72;;;9.84;100.00
13661;BME280;6903;49.480;11.102;2023-05-19T03:17:33;98421.28;;;9.86;100.00
13661;BME280;6903;49.480;11.102;2023-05-19T03:20:00;98420.34;;;9.87;100.00
13661;BME280;6903;49.480;11.102;2023-05-19T03:22:25;98425.50;;;9.89;100.00
13661;BME280;6903;49.480;11.102;2023-05-19T03:24:51;98426.97;;;9.93;100.00
13661;BME280;6903;49.480;11.102;2023-05-19T03:27:18;98433.81;;;9.95;100.00
13661;BME280;6903;49.480;11.102;2023-05-19T03:29:43;98432.69;;;9.99;100.00
13661;BME280;6903;49.480;11.102;2023-05-19T03:32:08;98431.00;;;9.98;100.00
13661;BME280;6903;49.480;11.102;2023-05-19T03:34:34;98434.34;;;10.00;100.00
13661;BME280;6903;49.480;11.102;2023-05-19T03:36:59;98438.69;;;10.01;100.00
13661;BME280;6903;49.480;11.102;2023-05-19T03:39:24;98435.84;;;10.04;100.00
13661;BME280;6903;49.480;11.102;2023-05-19T03:41:50;98425.97;;;10.08;100.00
13661;BME280;6903;49.480;11.102;2023-05-19T03:44:15;98437.22;;;10.10;100.00
13661;BME280;6903;49.480;11.102;2023-05-19T03:46:40;98436.06;;;10.14;100.00
13661;BME280;6903;49.480;11.102;2023-05-19T03:49:06;98441.97;;;10.18;100.00
13661;BME280;6903;49.480;11.102;2023-05-19T03:51:31;98444.50;;;10.19;100.00
13661;BME280;6903;49.480;11.102;2023-05-19T03:53:58;98439.00;;;10.22;100.00
13661;BME280;6903;49.480;11.102;2023-05-19T03:56:24;98444.06;;;10.25;100.00
13661;BME280;6903;49.480;11.102;2023-05-19T03:58:51;98440.28;;;10.29;100.00
13661;BME280;6903;49.480;11.102;2023-05-19T04:01:18;98446.13;;;10.33;100.00
13661;BME280;6903;49.480;11.102;2023-05-19T04:03:44;98449.31;;;10.38;100.00
13661;BME280;6903;49.480;11.102;2023-05-19T04:06:09;98456.06;;;10.42;100.00
13661;BME280;6903;49.480;11.102;2023-05-19T04:08:35;98464.50;;;10.47;100.00
13661;BME280;6903;49.480;11.102;2023-05-19T04:11:00;98459.81;;;10.50;100.00
13661;BME280;6903;49.480;11.102;2023-05-19T04:13:25;98458.75;;;10.53;100.00
13661;BME280;6903;49.480;11.102;2023-05-19T04:15:51;98459.41;;;10.56;100.00
13661;BME280;6903;49.480;11.102;2023-05-19T04:18:16;98463.59;;;10.59;100.00
13661;BME280;6903;49.480;11.102;2023-05-19T04:20:41;98454.53;;;10.63;100.00
13661;BME280;6903;49.480;11.102;2023-05-19T04:23:07;98452.59;;;10.65;100.00
13661;BME280;6903;49.480;11.102;2023-05-19T04:25:33;98456.84;;;10.67;100.00
13661;BME280;6903;49.480;11.102;2023-05-19T04:28:00;98449.66;;;10.69;100.00
13661;BME280;6903;49.480;11.102;2023-05-19T04:30:25;98459.03;;;10.73;100.00
13661;BME280;6903;49.480;11.102;2023-05-19T04:32:50;98458.16;;;10.73;100.00
13661;BME280;6903;49.480;11.102;2023-05-19T04:35:16;98460.63;;;10.76;100.00
13661;BME280;6903;49.480;11.102;2023-05-19T04:37:44;98454.88;;;10.82;100.00
13661;BME280;6903;49.480;11.102;2023-05-19T04:40:12;98456.09;;;10.89;100.00
13661;BME280;6903;49.480;11.102;2023-05-19T04:42:38;98462.63;;;10.96;100.00
13661;BME280;6903;49.480;11.102;2023-05-19T04:45:07;98450.56;;;11.04;100.00
13661;BME280;6903;49.480;11.102;2023-05-19T04:47:33;98450.72;;;11.14;100.00
13661;BME280;6903;49.480;11.102;2023-05-19T04:50:01;98449.94;;;11.24;100.00
13661;BME280;6903;49.480;11.102;2023-05-19T04:52:27;98449.38;;;11.32;100.00
13661;BME280;6903;49.480;11.102;2023-05-19T04:54:52;98455.88;;;11.39;100.00
13661;BME280;6903;49.480;11.102;2023-05-19T04:57:18;98452.78;;;11.45;100.00
13661;BME280;6903;49.480;11.102;2023-05-19T04:59:43;98447.97;;;11.50;100.00
13661;BME280;6903;49.480;11.102;2023-05-19T05:02:08;98449.44;;;11.54;100.00
13661;BME280;6903;49.480;11.102;2023-05-19T05:04:34;98448.16;;;11.60;100.00
13661;BME280;6903;49.480;11.102;2023-05-19T05:07:00;98456.50;;;11.66;100.00
13661;BME280;6903;49.480;11.102;2023-05-19T05:09:25;98457.56;;;11.75;100.00
13661;BME280;6903;49.480;11.102;2023-05-19T05:11:50;98454.56;;;11.79;100.00
13661;BME280;6903;49.480;11.102;2023-05-19T05:14:16;98455.78;;;11.86;100.00
13661;BME280;6903;49.480;11.102;2023-05-19T05:16:42;98453.63;;;11.91;100.00
13661;BME280;6903;49.480;11.102;2023-05-19T05:19:07;98449.31;;;11.90;100.00
13661;BME280;6903;49.480;11.102;2023-05-19T05:21:33;98455.69;;;11.88;100.00
13661;BME280;6903;49.480;11.102;2023-05-19T05:23:59;98447.63;;;11.89;100.00
13661;BME280;6903;49.480;11.102;2023-05-19T05:26:27;98443.94;;;11.92;100.00
13661;BME280;6903;49.480;11.102;2023-05-19T05:28:53;98441.03;;;11.95;100.00
13661;BME280;6903;49.480;11.102;2023-05-19T05:31:19;98440.44;;;12.02;100.00
13661;BME280;6903;49.480;11.102;2023-05-19T05:33:45;98435.88;;;12.15;100.00
13661;BME280;6903;49.480;11.102;2023-05-19T05:36:10;98432.28;;;12.27;100.00
13661;BME280;6903;49.480;11.102;2023-05-19T05:38:35;98429.63;;;12.49;100.00
13661;BME280;6903;49.480;11.102;2023-05-19T05:41:01;98441.75;;;12.74;100.00
13661;BME280;6903;49.480;11.102;2023-05-19T05:43:28;98442.88;;;12.92;100.00
13661;BME280;6903;49.480;11.102;2023-05-19T05:45:53;98444.69;;;13.03;100.00
13661;BME280;6903;49.480;11.102;2023-05-19T05:48:19;98443.69;;;13.15;100.00
13661;BME280;6903;49.480;11.102;2023-05-19T05:50:44;98450.09;;;13.12;100.00
13661;BME280;6903;49.480;11.102;2023-05-19T05:53:16;98437.69;;;13.13;100.00
13661;BME280;6903;49.480;11.102;2023-05-19T05:55:42;98439.16;;;13.06;100.00
13661;BME280;6903;49.480;11.102;2023-05-19T05:58:07;98437.22;;;13.08;100.00
13661;BME280;6903;49.480;11.102;2023-05-19T06:00:35;98448.50;;;13.21;100.00
13661;BME280;6903;49.480;11.102;2023-05-19T06:03:00;98441.25;;;13.23;100.00
13661;BME280;6903;49.480;11.102;2023-05-19T06:05:27;98443.31;;;13.51;100.00
13661;BME280;6903;49.480;11.102;2023-05-19T06:07:52;98452.69;;;13.75;100.00
13661;BME280;6903;49.480;11.102;2023-05-19T06:10:18;98452.50;;;13.88;100.00
13661;BME280;6903;49.480;11.102;2023-05-19T06:12:43;98451.50;;;13.89;100.00
13661;BME280;6903;49.480;11.102;2023-05-19T06:15:09;98449.56;;;13.91;100.00
13661;BME280;6903;49.480;11.102;2023-05-19T06:17:34;98444.22;;;13.81;100.00
13661;BME280;6903;49.480;11.102;2023-05-19T06:20:01;98443.16;;;13.93;100.00
13661;BME280;6903;49.480;11.102;2023-05-19T06:22:26;98433.72;;;14.00;100.00
13661;BME280;6903;49.480;11.102;2023-05-19T06:24:52;98435.66;;;14.19;100.00
13661;BME280;6903;49.480;11.102;2023-05-19T06:27:17;98436.69;;;14.07;100.00
13661;BME280;6903;49.480;11.102;2023-05-19T06:29:42;98428.91;;;14.15;100.00
13661;BME280;6903;49.480;11.102;2023-05-19T06:32:08;98437.91;;;14.03;100.00
13661;BME280;6903;49.480;11.102;2023-05-19T06:34:33;98450.94;;;14.06;100.00
13661;BME280;6903;49.480;11.102;2023-05-19T06:36:58;98454.06;;;14.00;100.00
13661;BME280;6903;49.480;11.102;2023-05-19T06:39:26;98445.94;;;14.12;100.00
13661;BME280;6903;49.480;11.102;2023-05-19T06:41:51;98444.56;;;14.48;100.00
13661;BME280;6903;49.480;11.102;2023-05-19T06:44:16;98448.84;;;14.70;100.00
13661;BME280;6903;49.480;11.102;2023-05-19T06:46:42;98445.06;;;14.72;100.00
13661;BME280;6903;49.480;11.102;2023-05-19T06:49:08;98443.31;;;15.01;99.57
13661;BME280;6903;49.480;11.102;2023-05-19T06:51:33;98446.97;;;15.10;97.77
13661;BME280;6903;49.480;11.102;2023-05-19T06:53:59;98432.72;;;15.11;97.70
13661;BME280;6903;49.480;11.102;2023-05-19T06:56:24;98435.78;;;15.06;96.56
13661;BME280;6903;49.480;11.102;2023-05-19T06:58:49;98433.69;;;15.19;98.38
13661;BME280;6903;49.480;11.102;2023-05-19T07:01:15;98436.63;;;15.16;95.78
13661;BME280;6903;49.480;11.102;2023-05-19T07:03:40;98426.84;;;15.17;96.13
13661;BME280;6903;49.480;11.102;2023-05-19T07:06:06;98436.34;;;15.10;95.24
13661;BME280;6903;49.480;11.102;2023-05-19T07:08:31;98436.34;;;15.00;96.65
13661;BME280;6903;49.480;11.102;2023-05-19T07:10:56;98437.63;;;15.06;95.91
13661;BME280;6903;49.480;11.102;2023-05-19T07:13:21;98427.44;;;15.20;95.74
13661;BME280;6903;49.480;11.102;2023-05-19T07:15:47;98419.19;;;15.42;93.88
13661;BME280;6903;49.480;11.102;2023-05-19T07:18:16;98410.78;;;15.66;91.54
13661;BME280;6903;49.480;11.102;2023-05-19T07:20:41;98421.97;;;15.70;89.85
13661;BME280;6903;49.480;11.102;2023-05-19T07:23:07;98423.25;;;15.66;90.49
13661;BME280;6903;49.480;11.102;2023-05-19T07:25:32;98414.97;;;15.69;89.95
13661;BME280;6903;49.480;11.102;2023-05-19T07:27:58;98413.91;;;15.98;89.47
13661;BME280;6903;49.480;11.102;2023-05-19T07:30:23;98425.69;;;15.96;88.90
13661;BME280;6903;49.480;11.102;2023-05-19T07:32:49;98419.50;;;16.05;88.58
13661;BME280;6903;49.480;11.102;2023-05-19T07:35:14;98411.09;;;16.19;87.47
13661;BME280;6903;49.480;11.102;2023-05-19T07:37:40;98419.19;;;16.17;86.23
13661;BME280;6903;49.480;11.102;2023-05-19T07:40:06;98408.03;;;16.50;86.17
13661;BME280;6903;49.480;11.102;2023-05-19T07:42:32;98412.31;;;16.88;84.83
13661;BME280;6903;49.480;11.102;2023-05-19T07:44:57;98414.34;;;16.76;82.36
13661;BME280;6903;49.480;11.102;2023-05-19T07:47:22;98403.13;;;16.73;83.25
13661;BME280;6903;49.480;11.102;2023-05-19T07:49:48;98410.81;;;16.76;82.63
13661;BME280;6903;49.480;11.102;2023-05-19T07:52:13;98399.31;;;16.75;82.73
13661;BME280;6903;49.480;11.102;2023-05-19T07:54:38;98405.59;;;16.57;83.73
13661;BME280;6903;49.480;11.102;2023-05-19T07:57:04;98400.94;;;16.68;82.80
13661;BME280;6903;49.480;11.102;2023-05-19T07:59:30;98393.56;;;16.80;80.52
13661;BME280;6903;49.480;11.102;2023-05-19T08:01:55;98399.50;;;16.91;80.82
13661;BME280;6903;49.480;11.102;2023-05-19T08:04:20;98391.69;;;17.25;79.21
13661;BME280;6903;49.480;11.102;2023-05-19T08:06:46;98394.09;;;17.46;76.80
13661;BME280;6903;49.480;11.102;2023-05-19T08:09:11;98398.63;;;17.53;77.39
13661;BME280;6903;49.480;11.102;2023-05-19T08:11:36;98402.97;;;17.72;75.15
13661;BME280;6903;49.480;11.102;2023-05-19T08:14:02;98399.53;;;17.44;75.67
13661;BME280;6903;49.480;11.102;2023-05-19T08:16:27;98406.09;;;17.50;74.21
13661;BME280;6903;49.480;11.102;2023-05-19T08:18:53;98409.34;;;17.44;75.12
13661;BME280;6903;49.480;11.102;2023-05-19T08:21:19;98407.66;;;17.25;73.55
13661;BME280;6903;49.480;11.102;2023-05-19T08:23:45;98391.50;;;16.91;75.14
13661;BME280;6903;49.480;11.102;2023-05-19T08:26:10;98392.50;;;16.73;76.96
13661;BME280;6903;49.480;11.102;2023-05-19T08:28:36;98383.88;;;16.79;76.98
13661;BME280;6903;49.480;11.102;2023-05-19T08:31:01;98402.00;;;16.75;78.55
13661;BME280;6903;49.480;11.102;2023-05-19T08:33:26;98386.91;;;16.66;77.17
13661;BME280;6903;49.480;11.102;2023-05-19T08:35:52;98383.88;;;16.79;77.73
13661;BME280;6903;49.480;11.102;2023-05-19T08:38:19;98393.28;;;16.83;76.87
13661;BME280;6903;49.480;11.102;2023-05-19T08:40:45;98384.13;;;16.85;77.64
13661;BME280;6903;49.480;11.102;2023-05-19T08:43:11;98380.75;;;17.11;75.75
13661;BME280;6903;49.480;11.102;2023-05-19T08:45:38;98385.44;;;17.34;74.62
13661;BME280;6903;49.480;11.102;2023-05-19T08:48:07;98377.06;;;17.29;74.02
13661;BME280;6903;49.480;11.102;2023-05-19T08:50:35;98377.88;;;16.94;74.50
13661;BME280;6903;49.480;11.102;2023-05-19T08:53:14;98378.44;;;16.98;74.76
13661;BME280;6903;49.480;11.102;2023-05-19T08:56:01;98380.47;;;16.86;74.29
13661;BME280;6903;49.480;11.102;2023-05-19T08:58:34;98368.69;;;16.89;75.25
13661;BME280;6903;49.480;11.102;2023-05-19T09:00:59;98372.03;;;16.91;74.92
13661;BME280;6903;49.480;11.102;2023-05-19T09:03:26;98361.56;;;17.07;74.36
13661;BME280;6903;49.480;11.102;2023-05-19T09:05:52;98371.28;;;17.16;74.72
13661;BME280;6903;49.480;11.102;2023-05-19T09:08:18;98371.59;;;17.13;74.94
13661;BME280;6903;49.480;11.102;2023-05-19T09:10:43;98372.75;;;17.11;75.09
13661;BME280;6903;49.480;11.102;2023-05-19T09:13:08;98379.72;;;17.29;74.47
13661;BME280;6903;49.480;11.102;2023-05-19T09:15:34;98369.13;;;17.37;73.46
13661;BME280;6903;49.480;11.102;2023-05-19T09:18:10;98369.94;;;17.47;73.26
13661;BME280;6903;49.480;11.102;2023-05-19T09:20:38;98369.22;;;17.10;73.88
13661;BME280;6903;49.480;11.102;2023-05-19T09:23:04;98375.34;;;17.20;74.80
13661;BME280;6903;49.480;11.102;2023-05-19T09:25:29;98377.28;;;17.36;74.44
13661;BME280;6903;49.480;11.102;2023-05-19T09:27:56;98380.88;;;17.62;73.73
13661;BME280;6903;49.480;11.102;2023-05-19T09:30:22;98376.13;;;17.56;72.78
13661;BME280;6903;49.480;11.102;2023-05-19T09:32:48;98374.94;;;17.15;72.98
13661;BME280;6903;49.480;11.102;2023-05-19T09:35:13;98364.28;;;17.33;73.35
13661;BME280;6903;49.480;11.102;2023-05-19T09:37:42;98364.53;;;17.22;73.21
13661;BME280;6903;49.480;11.102;2023-05-19T09:40:13;98367.63;;;17.52;72.75
13661;BME280;6903;49.480;11.102;2023-05-19T09:42:39;98367.06;;;17.66;72.40
13661;BME280;6903;49.480;11.102;2023-05-19T09:45:06;98354.66;;;17.40;72.39
13661;BME280;6903;49.480;11.102;2023-05-19T09:47:40;98370.00;;;17.55;73.19
13661;BME280;6903;49.480;11.102;2023-05-19T09:50:07;98365.13;;;17.51;71.30
13661;BME280;6903;49.480;11.102;2023-05-19T09:52:42;98361.53;;;17.60;70.27
13661;BME280;6903;49.480;11.102;2023-05-19T09:55:12;98353.84;;;17.82;70.45
13661;BME280;6903;49.480;11.102;2023-05-19T09:57:39;98348.41;;;18.25;69.56
13661;BME280;6903;49.480;11.102;2023-05-19T10:00:06;98357.88;;;18.46;67.48
13661;BME280;6903;49.480;11.102;2023-05-19T10:02:45;98335.03;;;18.25;68.39
13661;BME280;6903;49.480;11.102;2023-05-19T10:05:15;98335.88;;;18.60;66.75
13661;BME280;6903;49.480;11.102;2023-05-19T10:07:52;98328.16;;;18.49;66.34
13661;BME280;6903;49.480;11.102;2023-05-19T10:10:19;98331.97;;;18.46;66.34
13661;BME280;6903;49.480;11.102;2023-05-19T10:12:45;98319.03;;;18.67;66.16
13661;BME280;6903;49.480;11.102;2023-05-19T10:15:12;98327.03;;;18.59;64.65
13661;BME280;6903;49.480;11.102;2023-05-19T10:17:39;98318.56;;;18.38;66.08
13661;BME280;6903;49.480;11.102;2023-05-19T10:20:15;98315.16;;;18.54;66.55
13661;BME280;6903;49.480;11.102;2023-05-19T10:22:43;98320.59;;;18.94;66.57
13661;BME280;6903;49.480;11.102;2023-05-19T10:25:09;98306.22;;;18.87;64.50
13661;BME280;6903;49.480;11.102;2023-05-19T10:27:38;98304.00;;;18.58;65.28
13661;BME280;6903;49.480;11.102;2023-05-19T10:30:16;98299.63;;;18.41;65.47
13661;BME280;6903;49.480;11.102;2023-05-19T10:32:43;98304.69;;;18.18;65.67
13661;BME280;6903;49.480;11.102;2023-05-19T10:35:35;98307.03;;;17.88;66.86
13661;BME280;6903;49.480;11.102;2023-05-19T10:41:01;98287.81;;;18.68;64.63
13661;BME280;6903;49.480;11.102;2023-05-19T10:46:06;98278.00;;;19.16;63.02
13661;BME280;6903;49.480;11.102;2023-05-19T10:48:33;98289.06;;;19.29;61.41
13661;BME280;6903;49.480;11.102;2023-05-19T10:51:01;98273.34;;;19.02;61.53
13661;BME280;6903;49.480;11.102;2023-05-19T10:53:31;98280.84;;;18.91;62.10
13661;BME280;6903;49.480;11.102;2023-05-19T10:55:58;98281.00;;;18.81;62.23
13661;BME280;6903;49.480;11.102;2023-05-19T11:01:14;98288.03;;;19.06;62.11
13661;BME280;6903;49.480;11.102;2023-05-19T11:03:51;98286.00;;;18.84;62.04
13661;BME280;6903;49.480;11.102;2023-05-19T11:06:18;98288.19;;;19.05;62.18
13661;BME280;6903;49.480;11.102;2023-05-19T11:08:45;98288.72;;;19.16;61.21
13661;BME280;6903;49.480;11.102;2023-05-19T11:11:15;98276.47;;;18.82;61.79
13661;BME280;6903;49.480;11.102;2023-05-19T11:13:51;98292.97;;;18.61;63.18
13661;BME280;6903;49.480;11.102;2023-05-19T11:16:27;98275.69;;;18.97;61.96
13661;BME280;6903;49.480;11.102;2023-05-19T11:18:55;98270.69;;;19.34;61.08
13661;BME280;6903;49.480;11.102;2023-05-19T11:21:20;98274.78;;;19.77;59.74
13661;BME280;6903;49.480;11.102;2023-05-19T11:23:46;98278.97;;;20.26;58.60
13661;BME280;6903;49.480;11.102;2023-05-19T11:26:11;98272.38;;;20.37;58.07
13661;BME280;6903;49.480;11.102;2023-05-19T11:28:37;98266.41;;;20.57;58.26
13661;BME280;6903;49.480;11.102;2023-05-19T11:31:03;98273.16;;;21.07;56.05
13661;BME280;6903;49.480;11.102;2023-05-19T11:33:32;98270.19;;;21.39;54.48
13661;BME280;6903;49.480;11.102;2023-05-19T11:35:57;98267.72;;;21.52;54.42
13661;BME280;6903;49.480;11.102;2023-05-19T11:38:23;98262.41;;;21.95;53.61
13661;BME280;6903;49.480;11.102;2023-05-19T11:40:51;98253.03;;;22.06;51.45
13661;BME280;6903;49.480;11.102;2023-05-19T11:43:17;98245.94;;;21.84;52.07
13661;BME280;6903;49.480;11.102;2023-05-19T11:45:43;98254.03;;;21.61;51.64
13661;BME280;6903;49.480;11.102;2023-05-19T11:48:12;98250.97;;;21.64;51.21
13661;BME280;6903;49.480;11.102;2023-05-19T11:50:40;98246.53;;;21.71;52.07
13661;BME280;6903;49.480;11.102;2023-05-19T11:53:05;98236.91;;;22.20;50.76
13661;BME280;6903;49.480;11.102;2023-05-19T11:55:31;98236.00;;;21.84;51.34
13661;BME280;6903;49.480;11.102;2023-05-19T11:58:01;98237.59;;;21.79;50.25
13661;BME280;6903;49.480;11.102;2023-05-19T12:00:28;98225.44;;;21.83;51.69
13661;BME280;6903;49.480;11.102;2023-05-19T12:02:55;98222.84;;;22.04;51.52
13661;BME280;6903;49.480;11.102;2023-05-19T12:05:22;98219.50;;;21.73;49.83
13661;BME280;6903;49.480;11.102;2023-05-19T12:07:48;98236.03;;;21.47;50.11
13661;BME280;6903;49.480;11.102;2023-05-19T12:10:16;98224.50;;;21.10;50.32
13661;BME280;6903;49.480;11.102;2023-05-19T12:12:41;98214.66;;;21.25;50.58
13661;BME280;6903;49.480;11.102;2023-05-19T12:15:09;98216.56;;;21.68;51.05
13661;BME280;6903;49.480;11.102;2023-05-19T12:17:35;98210.38;;;21.82;50.40
13661;BME280;6903;49.480;11.102;2023-05-19T12:20:00;98222.84;;;22.04;50.39
13661;BME280;6903;49.480;11.102;2023-05-19T12:22:26;98217.84;;;21.72;49.40
13661;BME280;6903;49.480;11.102;2023-05-19T12:24:52;98232.28;;;21.56;49.38
13661;BME280;6903;49.480;11.102;2023-05-19T12:27:18;98212.53;;;21.35;48.80
13661;BME280;6903;49.480;11.102;2023-05-19T12:29:49;98209.50;;;21.67;49.19
13661;BME280;6903;49.480;11.102;2023-05-19T12:32:21;98214.06;;;22.31;49.04
13661;BME280;6903;49.480;11.102;2023-05-19T12:34:48;98217.00;;;22.00;48.65
13661;BME280;6903;49.480;11.102;2023-05-19T12:37:14;98203.53;;;21.94;48.54
13661;BME280;6903;49.480;11.102;2023-05-19T12:39:41;98203.91;;;22.26;48.62
13661;BME280;6903;49.480;11.102;2023-05-19T12:42:07;98198.94;;;22.80;47.54
13661;BME280;6903;49.480;11.102;2023-05-19T12:44:37;98194.47;;;23.15;46.40
13661;BME280;6903;49.480;11.102;2023-05-19T12:47:06;98194.72;;;23.20;46.65
13661;BME280;6903;49.480;11.102;2023-05-19T12:49:32;98189.94;;;23.15;46.25
13661;BME280;6903;49.480;11.102;2023-05-19T12:52:00;98184.50;;;23.30;45.58
13661;BME280;6903;49.480;11.102;2023-05-19T12:54:26;98185.13;;;23.32;45.17
13661;BME280;6903;49.480;11.102;2023-05-19T12:56:51;98184.44;;;23.02;46.23
13661;BME280;6903;49.480;11.102;2023-05-19T12:59:23;98190.75;;;22.67;45.88
13661;BME280;6903;49.480;11.102;2023-05-19T13:01:58;98191.63;;;22.95;44.59
13661;BME280;6903;49.480;11.102;2023-05-19T13:04:24;98174.31;;;23.04;45.33
13661;BME280;6903;49.480;11.102;2023-05-19T13:06:50;98188.69;;;22.69;44.48
13661;BME280;6903;49.480;11.102;2023-05-19T13:09:15;98180.25;;;22.36;45.66
13661;BME280;6903;49.480;11.102;2023-05-19T13:11:45;98179.38;;;22.51;45.85
13661;BME280;6903;49.480;11.102;2023-05-19T13:14:15;98183.84;;;22.79;45.60
13661;BME280;6903;49.480;11.102;2023-05-19T13:16:43;98178.47;;;23.62;44.27
13661;BME280;6903;49.480;11.102;2023-05-19T13:19:08;98181.22;;;24.03;43.09